Time;durP1;ratioP1;P1;durP2;ratioP2;P2;SDS_P1;SDS_P2;PMS_P1;PMS_P2;Temp;Humidity;BMP_temperature;BMP_pressure;BME280_temperature;BME280_humidity;BME280_pressure;Samples;Min_cycle;Max_cycle;Signal;HPM_P1;HPM_P2
2023/01/13 00:01:23;;;;;;;;;;;;;;;14.08;61.71;99501.16;4947631;28;6966;-72
2023/01/13 00:03:49;;;;;;;;;;;;;;;14.02;62.15;99507.94;4978140;28;7156;-72
2023/01/13 00:06:22;;;;;;;;;;;;;;;13.95;62.39;99510.34;4973507;28;7275;-71
2023/01/13 00:08:49;;;;;;;;;;;;;;;13.89;61.23;99513.66;4975477;28;7830;-72
2023/01/13 00:11:15;;;;;;;;;;;;;;;13.82;61.43;99511.84;4984500;28;7165;-72
2023/01/13 00:13:42;;;;;;;;;;;;;;;13.81;62.16;99517.78;4959283;28;6850;-72
2023/01/13 00:16:12;;;;;;;;;;;;;;;13.84;62.78;99502.44;4955454;28;6860;-72
2023/01/13 00:18:37;;;;;;;;;;;;;;;13.84;61.89;99505.84;4950754;28;6832;-72
2023/01/13 00:21:05;;;;;;;;;;;;;;;13.87;62.27;99515.34;4972995;28;6959;-72
2023/01/13 00:23:33;;;;;;;;;;;;;;;13.91;62.32;99506.88;4962954;28;6917;-72
2023/01/13 00:26:04;;;;;;;;;;;;;;;13.92;62.12;99500.88;4952481;28;6792;-72
2023/01/13 00:28:30;;;;;;;;;;;;;;;13.96;62.61;99510.38;4959261;28;6831;-72
2023/01/13 00:31:05;;;;;;;;;;;;;;;13.98;61.89;99494.97;4949405;28;6832;-72
2023/01/13 00:33:30;;;;;;;;;;;;;;;14.03;62.66;99491.66;4951132;28;7009;-72
2023/01/13 00:36:01;;;;;;;;;;;;;;;14.07;62.50;99494.28;4981527;28;7890;-72
2023/01/13 00:38:30;;;;;;;;;;;;;;;14.10;62.19;99491.75;4975821;28;6991;-72
2023/01/13 00:41:05;;;;;;;;;;;;;;;14.13;61.99;99486.66;4962970;28;6997;-72
2023/01/13 00:43:33;;;;;;;;;;;;;;;14.20;61.15;99498.84;4954475;28;6946;-72
2023/01/13 00:46:00;;;;;;;;;;;;;;;14.20;61.22;99506.56;4959911;28;6796;-72
2023/01/13 00:48:27;;;;;;;;;;;;;;;14.20;62.24;99491.09;4987029;28;6994;-72
2023/01/13 00:51:03;;;;;;;;;;;;;;;14.24;61.92;99489.41;4959049;28;7311;-72
2023/01/13 00:53:34;;;;;;;;;;;;;;;14.24;60.70;99498.03;4960846;28;7154;-72
2023/01/13 00:56:07;;;;;;;;;;;;;;;14.24;60.70;99492.88;4957908;28;6796;-72
2023/01/13 00:58:34;;;;;;;;;;;;;;;14.24;60.45;99498.03;4964082;28;7083;-72
2023/01/13 01:01:11;;;;;;;;;;;;;;;14.23;60.43;99496.31;4982958;28;6809;-73
2023/01/13 01:03:37;;;;;;;;;;;;;;;14.22;59.82;99498.84;4951110;28;6816;-72
2023/01/13 01:06:08;;;;;;;;;;;;;;;14.18;59.95;99503.06;4961262;28;6943;-72
2023/01/13 01:08:35;;;;;;;;;;;;;;;14.15;59.61;99528.78;4956331;28;6844;-72
2023/01/13 01:11:07;;;;;;;;;;;;;;;14.03;58.05;99499.38;4982754;28;6788;-72
2023/01/13 01:13:33;;;;;;;;;;;;;;;13.78;57.60;99481.69;4951126;28;7027;-71
2023/01/13 01:16:05;;;;;;;;;;;;;;;13.51;56.84;99488.00;4953829;28;6868;-72
2023/01/13 01:18:33;;;;;;;;;;;;;;;13.30;57.71;99458.34;4979011;28;6803;-72
2023/01/13 01:21:00;;;;;;;;;;;;;;;13.11;57.77;99480.25;4981725;28;7145;-72
2023/01/13 01:23:28;;;;;;;;;;;;;;;12.95;57.88;99500.44;4958243;28;6820;-72
2023/01/13 01:26:10;;;;;;;;;;;;;;;12.92;57.43;99498.66;4986114;28;7396;-72
2023/01/13 01:28:35;;;;;;;;;;;;;;;12.89;57.32;99488.31;4985509;28;7015;-72
2023/01/13 01:31:08;;;;;;;;;;;;;;;12.89;57.28;99492.56;4954997;28;7106;-72
2023/01/13 01:33:33;;;;;;;;;;;;;;;12.90;57.04;99487.47;4961732;28;6816;-72
2023/01/13 01:36:01;;;;;;;;;;;;;;;12.90;56.77;99484.91;4961122;28;7778;-72
2023/01/13 01:38:27;;;;;;;;;;;;;;;12.88;56.52;99502.00;4973434;28;6931;-72
2023/01/13 01:40:52;;;;;;;;;;;;;;;12.86;55.83;99495.09;4963964;28;6989;-72
2023/01/13 01:46:06;;;;;;;;;;;;;;;12.75;55.70;99505.13;4963669;28;6797;-72
2023/01/13 01:48:40;;;;;;;;;;;;;;;12.70;55.94;99515.31;4963148;28;6776;-72
2023/01/13 01:51:12;;;;;;;;;;;;;;;12.67;55.64;99520.34;4987861;28;7165;-72
2023/01/13 01:53:40;;;;;;;;;;;;;;;12.61;55.60;99527.91;4965817;28;6799;-72
2023/01/13 01:56:09;;;;;;;;;;;;;;;12.58;55.14;99513.28;4973515;28;7329;-72
2023/01/13 01:58:44;;;;;;;;;;;;;;;12.57;55.20;99519.25;4964794;28;6816;-72
2023/01/13 02:01:14;;;;;;;;;;;;;;;12.58;55.52;99521.00;4962922;28;6967;-72
2023/01/13 02:03:49;;;;;;;;;;;;;;;12.60;55.18;99526.16;4991535;28;7070;-72
2023/01/13 02:06:15;;;;;;;;;;;;;;;12.62;55.48;99525.38;4990477;28;6799;-72
2023/01/13 02:08:41;;;;;;;;;;;;;;;12.59;55.02;99529.56;4965197;28;6852;-72
2023/01/13 02:12:28;;;;;;;;;;;;;;;12.58;55.47;99528.69;4964959;28;6954;-72
2023/01/13 02:13:53;;;;;;;;;;;;;;;12.58;55.60;99532.97;4958956;28;7788;-72
2023/01/13 02:16:23;;;;;;;;;;;;;;;12.56;55.43;99532.94;4959814;28;6935;-72
2023/01/13 02:19:09;;;;;;;;;;;;;;;12.51;55.13;99521.66;4997861;28;7125;-72
2023/01/13 02:22:09;;;;;;;;;;;;;;;12.50;55.17;99515.63;4988147;28;7180;-72
2023/01/13 02:24:54;;;;;;;;;;;;;;;12.46;55.23;99507.84;4964541;28;8426;-72
2023/01/13 02:27:50;;;;;;;;;;;;;;;12.39;54.99;99513.63;4987939;28;7103;-72
2023/01/13 02:33:42;;;;;;;;;;;;;;;12.26;55.40;99508.16;4988753;28;6792;-72
2023/01/13 02:37:06;;;;;;;;;;;;;;;12.23;55.23;99500.38;4987661;28;7292;-72
2023/01/13 02:39:39;;;;;;;;;;;;;;;12.21;55.48;99512.31;4951858;28;6872;-72
2023/01/13 02:45:10;;;;;;;;;;;;;;;12.28;55.56;99515.91;4959416;28;7529;-72
2023/01/13 02:47:41;;;;;;;;;;;;;;;12.30;55.38;99502.28;4989287;28;7199;-72
2023/01/13 02:50:16;;;;;;;;;;;;;;;12.32;55.54;99487.75;4960049;28;7311;-72
2023/01/13 02:52:55;;;;;;;;;;;;;;;12.36;54.83;99487.03;4976506;28;6788;-72
2023/01/13 02:55:39;;;;;;;;;;;;;;;12.39;54.71;99493.06;4955853;28;7007;-72
2023/01/13 02:58:11;;;;;;;;;;;;;;;12.39;54.70;99487.94;4976075;28;6955;-72
2023/01/13 03:00:39;;;;;;;;;;;;;;;12.38;54.75;99487.06;4989763;28;6816;-72
2023/01/13 03:03:04;;;;;;;;;;;;;;;12.35;54.38;99499.84;4959617;28;7340;-72
2023/01/13 03:05:32;;;;;;;;;;;;;;;12.35;55.16;99498.13;4953773;28;6796;-72
2023/01/13 03:08:31;;;;;;;;;;;;;;;12.30;54.67;99499.72;4955619;28;6792;-72
2023/01/13 03:11:10;;;;;;;;;;;;;;;12.27;55.14;99497.06;4949893;28;7065;-72
2023/01/13 03:14:03;;;;;;;;;;;;;;;12.24;55.03;99496.97;4950043;28;7083;-72
2023/01/13 03:16:53;;;;;;;;;;;;;;;12.21;54.75;99504.59;4966803;28;7009;-72
2023/01/13 03:19:56;;;;;;;;;;;;;;;12.20;54.73;99496.00;4952366;28;6780;-72
2023/01/13 03:22:59;;;;;;;;;;;;;;;12.16;55.10;99495.88;4957505;28;6824;-72
2023/01/13 03:25:33;;;;;;;;;;;;;;;12.12;55.11;99494.06;4971268;28;6808;-72
2023/01/13 03:28:07;;;;;;;;;;;;;;;12.15;55.04;99495.03;4964617;28;7390;-72
2023/01/13 03:30:53;;;;;;;;;;;;;;;12.18;54.41;99491.69;4975813;28;7010;-72
2023/01/13 03:33:28;;;;;;;;;;;;;;;12.20;54.62;99495.16;4976314;28;6796;-72
2023/01/13 03:36:04;;;;;;;;;;;;;;;12.19;54.51;99498.56;4986890;28;7000;-72
2023/01/13 03:38:36;;;;;;;;;;;;;;;12.14;55.10;99500.13;4961151;28;6808;-72
2023/01/13 03:41:10;;;;;;;;;;;;;;;12.12;54.70;99486.38;4975535;28;6808;-72
2023/01/13 03:47:11;;;;;;;;;;;;;;;12.07;54.69;99494.84;4972784;28;6809;-72
2023/01/13 03:50:34;;;;;;;;;;;;;;;12.00;54.80;99477.47;4975173;28;6996;-72
2023/01/13 03:53:25;;;;;;;;;;;;;;;11.98;55.25;99498.81;4941297;28;8496;-72
2023/01/13 03:56:06;;;;;;;;;;;;;;;11.98;55.12;99499.69;4985304;28;7049;-72
2023/01/13 03:58:42;;;;;;;;;;;;;;;12.00;55.02;99502.28;4961234;28;6984;-72
2023/01/13 04:01:25;;;;;;;;;;;;;;;11.99;54.82;99506.56;4968219;28;7305;-72
2023/01/13 04:04:02;;;;;;;;;;;;;;;11.97;55.18;99500.47;4961627;28;7346;-72
2023/01/13 04:07:09;;;;;;;;;;;;;;;11.93;55.21;99491.84;4955535;28;6820;-72
2023/01/13 04:09:50;;;;;;;;;;;;;;;11.91;55.30;99497.75;4958668;28;6843;-72
2023/01/13 04:15:24;;;;;;;;;;;;;;;11.86;55.50;99497.63;4974238;28;6800;-72
2023/01/13 04:17:50;;;;;;;;;;;;;;;11.87;55.17;99493.34;4949456;28;6964;-72
2023/01/13 04:20:16;;;;;;;;;;;;;;;11.89;55.36;99491.72;4953207;28;6957;-72
2023/01/13 04:22:42;;;;;;;;;;;;;;;11.90;55.51;99501.16;4984539;28;8290;-72
2023/01/13 04:25:08;;;;;;;;;;;;;;;11.92;55.12;99505.50;4957314;28;6838;-72
2023/01/13 04:27:34;;;;;;;;;;;;;;;11.98;55.09;99501.38;4947630;28;7041;-71
2023/01/13 04:30:00;;;;;;;;;;;;;;;12.04;55.49;99499.00;4956830;28;6791;-72
2023/01/13 04:32:25;;;;;;;;;;;;;;;12.08;55.21;99499.13;4958551;28;6800;-72
2023/01/13 04:34:51;;;;;;;;;;;;;;;12.14;54.70;99495.88;4934919;28;7327;-72
2023/01/13 04:37:16;;;;;;;;;;;;;;;12.23;54.67;99505.50;4958172;28;7278;-72
2023/01/13 04:39:42;;;;;;;;;;;;;;;12.28;54.52;99506.50;4964033;28;6968;-72
2023/01/13 04:42:08;;;;;;;;;;;;;;;12.28;54.46;99503.94;4956236;28;6811;-72
2023/01/13 04:44:36;;;;;;;;;;;;;;;12.33;54.53;99501.50;4956943;28;8669;-72
2023/01/13 04:47:03;;;;;;;;;;;;;;;12.31;54.52;99486.03;4967954;28;7912;-72
2023/01/13 04:49:30;;;;;;;;;;;;;;;12.25;54.55;99488.44;4961139;28;6832;-72
2023/01/13 04:51:55;;;;;;;;;;;;;;;12.17;54.70;99484.81;4976681;28;6971;-72
2023/01/13 04:54:21;;;;;;;;;;;;;;;12.15;55.00;99491.56;4960689;28;6860;-72
2023/01/13 04:56:46;;;;;;;;;;;;;;;12.08;54.81;99494.00;4960243;28;6812;-72
2023/01/13 04:59:13;;;;;;;;;;;;;;;12.06;54.61;99477.66;4959071;28;6784;-72
2023/01/13 05:01:39;;;;;;;;;;;;;;;12.04;54.84;99479.31;4956009;28;7147;-72
2023/01/13 05:04:06;;;;;;;;;;;;;;;12.04;54.75;99474.19;4978360;28;7245;-72
2023/01/13 05:06:33;;;;;;;;;;;;;;;12.04;54.86;99481.88;4989650;28;7113;-72
2023/01/13 05:08:58;;;;;;;;;;;;;;;12.02;54.40;99473.28;4952292;28;7453;-72
2023/01/13 05:17:04;;;;;;;;;;;;;;;12.13;54.91;99473.56;4965572;28;7233;-72
2023/01/13 05:19:33;;;;;;;;;;;;;;;12.17;54.47;99474.53;4991714;28;6812;-73
2023/01/13 05:27:30;;;;;;;;;;;;;;;12.17;54.13;99487.38;4962868;28;7250;-72
2023/01/13 05:29:56;;;;;;;;;;;;;;;12.19;54.27;99475.44;4958114;28;7027;-73
2023/01/13 05:32:23;;;;;;;;;;;;;;;12.18;53.84;99486.53;4964449;28;7119;-72
2023/01/13 05:34:49;;;;;;;;;;;;;;;12.15;54.27;99482.19;4991043;28;6971;-72
2023/01/13 05:37:15;;;;;;;;;;;;;;;12.16;53.80;99488.19;4966262;28;6788;-72
2023/01/13 05:45:11;;;;;;;;;;;;;;;12.19;54.01;99504.56;4989213;28;6812;-72
2023/01/13 05:47:37;;;;;;;;;;;;;;;12.24;54.03;99514.09;4965443;28;7363;-72
2023/01/13 05:50:03;;;;;;;;;;;;;;;12.24;54.32;99507.25;4962853;28;7271;-72
2023/01/13 05:52:29;;;;;;;;;;;;;;;12.30;54.43;99507.41;4993130;28;6974;-73
2023/01/13 05:54:55;;;;;;;;;;;;;;;12.35;53.71;99513.53;4993803;28;6959;-72
2023/01/13 05:57:21;;;;;;;;;;;;;;;12.42;53.89;99518.84;4981933;28;7172;-72
2023/01/13 05:59:46;;;;;;;;;;;;;;;12.45;54.27;99511.19;4991714;28;6966;-72
2023/01/13 06:02:12;;;;;;;;;;;;;;;12.46;53.60;99518.97;4966887;28;6927;-72
2023/01/13 06:04:38;;;;;;;;;;;;;;;12.46;53.79;99511.25;4964442;28;8378;-71
2023/01/13 06:07:04;;;;;;;;;;;;;;;12.46;53.77;99500.97;4962464;28;6939;-71
2023/01/13 06:09:29;;;;;;;;;;;;;;;12.47;53.66;99510.41;4960736;28;6775;-72
2023/01/13 06:11:55;;;;;;;;;;;;;;;12.48;53.95;99512.16;4962930;28;6983;-72
2023/01/13 06:14:20;;;;;;;;;;;;;;;12.46;53.17;99511.25;4966431;28;7191;-72
2023/01/13 06:16:46;;;;;;;;;;;;;;;12.40;52.93;99518.78;4960237;28;6772;-72
2023/01/13 06:19:12;;;;;;;;;;;;;;;12.36;53.63;99532.41;4993916;28;6979;-72
2023/01/13 06:21:38;;;;;;;;;;;;;;;12.36;53.42;99520.44;4960378;28;6955;-72
2023/01/13 06:24:05;;;;;;;;;;;;;;;12.33;52.79;99528.03;4964387;28;6800;-72
2023/01/13 06:26:38;;;;;;;;;;;;;;;12.31;53.20;99523.69;4958380;28;6960;-72
2023/01/13 06:29:04;;;;;;;;;;;;;;;12.29;52.98;99544.22;4963322;28;6800;-73
2023/01/13 06:31:34;;;;;;;;;;;;;;;12.33;52.41;99547.75;4957387;28;6800;-71
2023/01/13 06:34:10;;;;;;;;;;;;;;;12.33;52.84;99553.75;4955543;28;7010;-71
2023/01/13 06:36:46;;;;;;;;;;;;;;;12.27;52.37;99545.88;4976534;28;6792;-72
2023/01/13 06:39:16;;;;;;;;;;;;;;;12.24;52.59;99538.06;4962446;28;7051;-71
2023/01/13 06:44:28;;;;;;;;;;;;;;;12.17;52.41;99560.16;4953183;28;7134;-72
2023/01/13 06:46:53;;;;;;;;;;;;;;;12.19;52.65;99562.78;4965080;28;7495;-71
2023/01/13 06:49:19;;;;;;;;;;;;;;;12.15;52.05;99573.78;4959565;28;6772;-71
2023/01/13 06:51:45;;;;;;;;;;;;;;;12.11;52.78;99571.97;4953684;28;6915;-72
2023/01/13 06:54:11;;;;;;;;;;;;;;;12.06;53.07;99572.69;4925750;28;7262;-72
2023/01/13 06:56:36;;;;;;;;;;;;;;;12.06;52.70;99570.13;4944324;28;6768;-71
2023/01/13 06:59:02;;;;;;;;;;;;;;;12.04;52.90;99570.94;4940408;28;6777;-72
2023/01/13 07:01:28;;;;;;;;;;;;;;;12.00;52.63;99581.88;4953349;28;7268;-72
2023/01/13 07:03:54;;;;;;;;;;;;;;;11.98;52.50;99565.56;4944317;28;6812;-71
2023/01/13 07:06:19;;;;;;;;;;;;;;;11.93;52.84;99580.84;4942575;28;6792;-72
2023/01/13 07:08:46;;;;;;;;;;;;;;;11.87;52.85;99576.41;4944296;28;7051;-72
2023/01/13 07:11:12;;;;;;;;;;;;;;;11.84;52.73;99584.03;4925600;28;8705;-71
2023/01/13 07:16:23;;;;;;;;;;;;;;;11.74;53.57;99585.44;4951627;28;6796;-72
2023/01/13 07:18:49;;;;;;;;;;;;;;;11.67;53.33;99586.94;4943566;28;7095;-71
2023/01/13 07:21:18;;;;;;;;;;;;;;;11.65;54.04;99573.19;4924612;28;7022;-72
2023/01/13 07:23:46;;;;;;;;;;;;;;;11.65;53.57;99569.75;4939963;28;6800;-72
2023/01/13 07:26:17;;;;;;;;;;;;;;;11.63;53.30;99585.09;4954701;28;7130;-71
2023/01/13 07:28:43;;;;;;;;;;;;;;;11.59;53.71;99577.25;4956282;28;6873;-71
2023/01/13 07:31:19;;;;;;;;;;;;;;;11.58;53.73;99591.78;4929017;28;6800;-71
2023/01/13 07:33:46;;;;;;;;;;;;;;;11.55;53.67;99585.69;4938624;28;6971;-71
2023/01/13 07:36:13;;;;;;;;;;;;;;;11.53;53.65;99589.09;4911060;28;7063;-72
2023/01/13 07:38:43;;;;;;;;;;;;;;;11.56;53.96;99590.00;4929727;28;6989;-71
2023/01/13 07:43:57;;;;;;;;;;;;;;;11.51;54.27;99582.16;4960680;28;6820;-72
2023/01/13 07:46:22;;;;;;;;;;;;;;;11.49;54.14;99594.97;4930000;28;6953;-73
2023/01/13 07:48:48;;;;;;;;;;;;;;;11.50;54.42;99599.25;4958688;28;6997;-71
2023/01/13 07:51:14;;;;;;;;;;;;;;;11.51;54.00;99589.84;4939250;28;7346;-71
2023/01/13 07:53:40;;;;;;;;;;;;;;;11.50;54.38;99603.50;4957155;28;6987;-71
2023/01/13 07:56:06;;;;;;;;;;;;;;;11.50;54.39;99598.38;4979185;28;6988;-72
2023/01/13 07:58:34;;;;;;;;;;;;;;;11.50;54.76;99601.84;4962085;28;6792;-71
2023/01/13 08:01:05;;;;;;;;;;;;;;;11.49;54.51;99609.47;4957149;28;6804;-71
2023/01/13 08:03:31;;;;;;;;;;;;;;;11.51;54.72;99610.38;4976675;28;7021;-72
2023/01/13 08:05:59;;;;;;;;;;;;;;;11.52;54.64;99613.00;4959299;28;6836;-71
2023/01/13 08:08:24;;;;;;;;;;;;;;;11.55;54.97;99616.50;4960715;28;6812;-71
2023/01/13 08:10:50;;;;;;;;;;;;;;;11.59;55.02;99623.44;4960141;28;7054;-71
2023/01/13 08:13:21;;;;;;;;;;;;;;;11.62;55.13;99629.56;4962708;28;6761;-72
2023/01/13 08:15:51;;;;;;;;;;;;;;;11.66;54.82;99618.56;4957524;28;7611;-72
2023/01/13 08:18:20;;;;;;;;;;;;;;;11.77;54.95;99639.41;4978211;28;7046;-71
2023/01/13 08:20:48;;;;;;;;;;;;;;;11.89;54.34;99640.66;4963630;28;6800;-72
2023/01/13 08:23:14;;;;;;;;;;;;;;;11.99;54.42;99634.06;4964097;28;6784;-71
2023/01/13 08:25:40;;;;;;;;;;;;;;;12.02;53.87;99637.66;4962126;28;6845;-71
2023/01/13 08:28:06;;;;;;;;;;;;;;;12.10;54.12;99634.44;4958212;28;6764;-73
2023/01/13 08:30:31;;;;;;;;;;;;;;;12.12;53.87;99649.09;4954704;28;6780;-72
2023/01/13 08:32:57;;;;;;;;;;;;;;;12.21;53.69;99653.59;4958359;28;6784;-72
2023/01/13 08:35:23;;;;;;;;;;;;;;;12.26;53.90;99630.63;4959255;28;6782;-72
2023/01/13 08:37:48;;;;;;;;;;;;;;;12.32;53.26;99665.06;4984814;28;7317;-72
2023/01/13 08:40:17;;;;;;;;;;;;;;;12.35;53.92;99661.72;4986487;28;6910;-72
2023/01/13 08:42:43;;;;;;;;;;;;;;;12.35;53.75;99656.56;4988347;28;6971;-71
2023/01/13 08:45:10;;;;;;;;;;;;;;;12.39;53.80;99660.09;4992287;28;6776;-72
2023/01/13 08:47:35;;;;;;;;;;;;;;;12.43;53.44;99667.06;4991999;28;7025;-72
2023/01/13 08:50:02;;;;;;;;;;;;;;;12.48;53.03;99650.94;4964547;28;7067;-72
2023/01/13 08:52:28;;;;;;;;;;;;;;;12.56;53.28;99651.19;4960739;28;6815;-72
2023/01/13 08:54:54;;;;;;;;;;;;;;;12.64;52.61;99667.66;4988264;28;7041;-72
2023/01/13 08:57:20;;;;;;;;;;;;;;;12.68;52.38;99660.06;4960970;28;6788;-71
2023/01/13 08:59:46;;;;;;;;;;;;;;;12.68;52.28;99660.91;4977563;28;7043;-72
2023/01/13 09:02:19;;;;;;;;;;;;;;;12.65;51.50;99665.97;4990966;28;6776;-71
2023/01/13 09:04:46;;;;;;;;;;;;;;;12.65;52.10;99663.41;4983974;28;6796;-72
2023/01/13 09:07:12;;;;;;;;;;;;;;;12.66;52.36;99664.28;4965507;28;6966;-71
2023/01/13 09:09:38;;;;;;;;;;;;;;;12.64;52.27;99666.81;4964803;28;6848;-71
2023/01/13 09:14:50;;;;;;;;;;;;;;;12.64;51.81;99672.81;4988507;28;6796;-72
2023/01/13 09:17:17;;;;;;;;;;;;;;;12.64;52.37;99677.94;4961072;28;6788;-72
2023/01/13 09:19:43;;;;;;;;;;;;;;;12.67;51.34;99671.16;4964655;28;6864;-71
2023/01/13 09:22:15;;;;;;;;;;;;;;;12.72;51.97;99674.72;4967398;28;6943;-72
2023/01/13 09:24:41;;;;;;;;;;;;;;;12.78;52.01;99674.91;4964458;28;6800;-72
2023/01/13 09:27:09;;;;;;;;;;;;;;;12.85;51.38;99671.69;4962539;28;6772;-71
2023/01/13 09:29:35;;;;;;;;;;;;;;;12.94;51.86;99670.16;4991155;28;7220;-71
2023/01/13 09:32:00;;;;;;;;;;;;;;;13.01;51.21;99672.94;4959952;28;6936;-72
2023/01/13 09:37:11;;;;;;;;;;;;;;;13.06;51.75;99663.63;4983062;28;6971;-72
2023/01/13 09:39:38;;;;;;;;;;;;;;;13.13;51.13;99674.09;4961936;28;6832;-71
2023/01/13 09:45:36;;;;;;;;;;;;;;;13.17;51.35;99668.19;4974075;28;6821;-71
2023/01/13 09:48:25;;;;;;;;;;;;;;;13.15;51.16;99665.59;4952144;28;7016;-72
2023/01/13 09:51:26;;;;;;;;;;;;;;;13.14;51.27;99671.56;4958942;28;6971;-72
2023/01/13 09:54:01;;;;;;;;;;;;;;;13.15;50.36;99668.16;4960834;28;6973;-73
2023/01/13 09:56:27;;;;;;;;;;;;;;;13.15;50.86;99670.75;4962195;28;7175;-72
2023/01/13 09:58:53;;;;;;;;;;;;;;;13.17;50.22;99671.66;4961199;28;6775;-71
2023/01/13 10:01:42;;;;;;;;;;;;;;;13.25;51.04;99676.13;4979646;28;6848;-72
2023/01/13 10:04:14;;;;;;;;;;;;;;;13.32;50.88;99678.00;4990806;28;7219;-72
2023/01/13 10:06:50;;;;;;;;;;;;;;;13.42;50.17;99687.72;4963127;28;7418;-71
2023/01/13 10:09:48;;;;;;;;;;;;;;;13.56;50.97;99689.78;4963110;28;6958;-72
2023/01/13 10:15:18;;;;;;;;;;;;;;;13.78;49.62;99685.13;4960879;28;6804;-71
2023/01/13 10:17:55;;;;;;;;;;;;;;;13.95;49.59;99700.97;4977031;28;6804;-71
2023/01/13 10:20:54;;;;;;;;;;;;;;;14.09;49.62;99686.72;4981677;28;7014;-72
2023/01/13 10:23:41;;;;;;;;;;;;;;;14.25;49.22;99690.50;4958399;28;6808;-71
2023/01/13 10:26:39;;;;;;;;;;;;;;;14.38;48.99;99685.59;4984596;28;6820;-72
2023/01/13 10:29:25;;;;;;;;;;;;;;;14.40;48.45;99689.94;4953919;28;7159;-72
2023/01/13 10:31:53;;;;;;;;;;;;;;;14.37;47.58;99694.16;4960465;28;7483;-72
2023/01/13 10:34:21;;;;;;;;;;;;;;;14.30;48.36;99693.16;4980277;28;6804;-71
2023/01/13 10:37:10;;;;;;;;;;;;;;;14.27;48.31;99699.13;4963373;28;6988;-72
2023/01/13 10:39:59;;;;;;;;;;;;;;;14.35;48.49;99701.88;4958962;28;7005;-72
2023/01/13 10:42:25;;;;;;;;;;;;;;;14.39;47.91;99714.00;4979037;28;7007;-72
2023/01/13 10:44:59;;;;;;;;;;;;;;;14.47;47.50;99718.44;4958653;28;6971;-71
2023/01/13 10:47:35;;;;;;;;;;;;;;;14.52;47.75;99720.28;4962730;28;7039;-71
2023/01/13 10:50:23;;;;;;;;;;;;;;;14.50;47.11;99721.97;4977747;28;7492;-72
2023/01/13 10:53:14;;;;;;;;;;;;;;;14.52;47.79;99716.81;4989608;28;9537;-72
2023/01/13 10:55:40;;;;;;;;;;;;;;;14.55;47.46;99720.34;4948073;28;7258;-71
2023/01/13 10:58:20;;;;;;;;;;;;;;;14.59;47.39;99729.00;4963547;28;7241;-71
2023/01/13 11:00:47;;;;;;;;;;;;;;;14.58;47.22;99722.13;4959537;28;6800;-72
2023/01/13 11:03:22;;;;;;;;;;;;;;;14.58;47.09;99715.25;4979369;28;6967;-71
2023/01/13 11:06:08;;;;;;;;;;;;;;;14.57;46.84;99728.97;4962483;28;7666;-72
2023/01/13 11:08:48;;;;;;;;;;;;;;;14.63;47.06;99724.78;4965587;28;6995;-71
2023/01/13 11:11:41;;;;;;;;;;;;;;;14.65;46.63;99728.25;4962700;28;7123;-73
2023/01/13 11:14:38;;;;;;;;;;;;;;;14.65;45.89;99708.50;4963881;28;6808;-71
2023/01/13 11:17:39;;;;;;;;;;;;;;;14.64;46.41;99726.53;4971689;28;6995;-72
2023/01/13 11:20:22;;;;;;;;;;;;;;;14.56;46.54;99724.66;4974249;28;7294;-72
2023/01/13 11:22:56;;;;;;;;;;;;;;;14.60;46.47;99727.31;4965334;28;6804;-71
2023/01/13 11:25:43;;;;;;;;;;;;;;;14.60;45.74;99714.41;4961100;28;6972;-72
2023/01/13 11:28:23;;;;;;;;;;;;;;;14.54;45.89;99717.75;4962295;28;7153;-71
2023/01/13 11:31:04;;;;;;;;;;;;;;;14.49;46.37;99722.81;4956870;28;6913;-71
2023/01/13 11:33:51;;;;;;;;;;;;;;;14.51;45.63;99735.72;4964722;28;7520;-71
2023/01/13 11:36:32;;;;;;;;;;;;;;;14.47;45.98;99750.25;4963807;28;6821;-72
2023/01/13 11:39:13;;;;;;;;;;;;;;;14.47;46.59;99752.81;4986222;28;6996;-72
2023/01/13 11:42:22;;;;;;;;;;;;;;;14.41;46.00;99744.97;4963850;28;7192;-71
2023/01/13 11:45:09;;;;;;;;;;;;;;;14.34;46.50;99743.97;4958206;28;6812;-71
2023/01/13 11:47:36;;;;;;;;;;;;;;;14.29;46.83;99746.44;4957923;28;6960;-72
2023/01/13 11:50:12;;;;;;;;;;;;;;;14.28;46.67;99747.25;4963393;28;6804;-71
2023/01/13 11:53:08;;;;;;;;;;;;;;;14.22;46.42;99754.88;4963239;28;8352;-72
2023/01/13 11:56:26;;;;;;;;;;;;;;;14.15;46.50;99750.41;4977821;28;7054;-72
2023/01/13 11:59:14;;;;;;;;;;;;;;;14.23;46.44;99751.44;4958634;28;7463;-72
2023/01/13 12:02:14;;;;;;;;;;;;;;;14.33;46.70;99752.50;4962732;28;6856;-72
2023/01/13 12:04:56;;;;;;;;;;;;;;;14.30;47.34;99752.44;4975753;28;7441;-71
2023/01/13 12:08:02;;;;;;;;;;;;;;;14.14;47.67;99753.81;4958004;28;6800;-71
2023/01/13 12:10:59;;;;;;;;;;;;;;;13.87;47.85;99762.63;4955533;28;7045;-71
2023/01/13 12:13:55;;;;;;;;;;;;;;;13.64;48.40;99752.63;4962522;28;6832;-71
2023/01/13 12:16:29;;;;;;;;;;;;;;;13.41;49.07;99770.03;4958747;28;6807;-72
2023/01/13 12:19:26;;;;;;;;;;;;;;;13.23;50.24;99779.00;4975814;28;6824;-71
2023/01/13 12:22:22;;;;;;;;;;;;;;;13.07;49.98;99795.72;4977102;28;6999;-71
2023/01/13 12:25:12;;;;;;;;;;;;;;;12.91;50.36;99809.84;4963922;28;6820;-72
2023/01/13 12:28:03;;;;;;;;;;;;;;;12.72;50.98;99803.28;4957646;28;6812;-73
2023/01/13 12:30:58;;;;;;;;;;;;;;;12.58;51.74;99810.56;4974140;28;6892;-72
2023/01/13 12:33:57;;;;;;;;;;;;;;;12.47;53.10;99807.69;4990550;28;7055;-71
2023/01/13 12:36:41;;;;;;;;;;;;;;;12.40;52.77;99822.03;4959335;28;7162;-71
2023/01/13 12:39:25;;;;;;;;;;;;;;;12.38;53.40;99815.97;4983855;28;6808;-71
2023/01/13 12:45:23;;;;;;;;;;;;;;;12.30;53.60;99831.16;4957668;28;6812;-71
2023/01/13 12:47:48;;;;;;;;;;;;;;;12.31;53.99;99820.06;4976446;28;6800;-72
2023/01/13 12:50:26;;;;;;;;;;;;;;;12.34;53.82;99822.72;4959500;28;7169;-71
2023/01/13 12:52:59;;;;;;;;;;;;;;;12.40;54.39;99822.03;4942258;28;6811;-72
2023/01/13 12:55:26;;;;;;;;;;;;;;;12.46;54.88;99834.22;4946271;28;7086;-72
2023/01/13 12:58:06;;;;;;;;;;;;;;;12.50;54.40;99829.19;4941408;28;6796;-71
2023/01/13 13:00:38;;;;;;;;;;;;;;;12.50;54.47;99839.47;4942556;28;7709;-71
2023/01/13 13:03:08;;;;;;;;;;;;;;;12.51;54.14;99848.09;4944127;28;6935;-71
2023/01/13 13:06:13;;;;;;;;;;;;;;;12.43;54.25;99847.84;4939376;28;7210;-72
2023/01/13 13:08:49;;;;;;;;;;;;;;;12.37;54.44;99845.06;4905801;29;7707;-72
2023/01/13 13:14:40;;;;;;;;;;;;;;;12.26;55.58;99855.00;4934707;28;6808;-71
2023/01/13 13:17:27;;;;;;;;;;;;;;;12.21;55.08;99867.69;4942802;28;6773;-71
2023/01/13 13:19:55;;;;;;;;;;;;;;;12.19;55.20;99866.78;4941312;28;7161;-71
2023/01/13 13:22:33;;;;;;;;;;;;;;;12.20;56.05;99875.38;4924891;28;6804;-71
2023/01/13 13:25:02;;;;;;;;;;;;;;;12.21;55.86;99871.97;4942705;28;6792;-71
2023/01/13 13:27:44;;;;;;;;;;;;;;;12.20;56.16;99886.50;4942768;28;6887;-72
2023/01/13 13:30:20;;;;;;;;;;;;;;;12.22;55.70;99907.13;4953795;28;6800;-72
2023/01/13 13:33:05;;;;;;;;;;;;;;;12.18;56.42;99895.00;4938834;28;7092;-71
2023/01/13 13:35:55;;;;;;;;;;;;;;;12.16;56.07;99899.19;4943619;28;6805;-70
2023/01/13 13:47:57;;;;;;;;;;;;;;;12.15;57.10;99912.88;4938025;28;6793;-71
2023/01/13 13:50:22;;;;;;;;;;;;;;;12.16;57.06;99907.78;4953927;28;8175;-70
2023/01/13 13:52:59;;;;;;;;;;;;;;;12.16;56.78;99915.50;4957443;28;6761;-71
2023/01/13 13:55:29;;;;;;;;;;;;;;;12.16;57.04;99917.19;4981468;28;6951;-71
2023/01/13 13:57:57;;;;;;;;;;;;;;;12.15;57.46;99913.75;4991531;28;6780;-71
2023/01/13 14:00:32;;;;;;;;;;;;;;;12.15;57.25;99911.19;4966565;28;6816;-72
2023/01/13 14:03:39;;;;;;;;;;;;;;;12.18;57.08;99921.56;4968811;28;7155;-71
2023/01/13 14:06:06;;;;;;;;;;;;;;;12.22;57.34;99925.09;4979172;28;7027;-71
2023/01/13 14:08:36;;;;;;;;;;;;;;;12.23;57.08;99919.16;4963673;28;6868;-71
2023/01/13 14:11:33;;;;;;;;;;;;;;;12.26;56.74;99926.94;4960622;28;6811;-71
2023/01/13 14:14:13;;;;;;;;;;;;;;;12.26;57.01;99934.66;4967396;28;6987;-72
2023/01/13 14:16:40;;;;;;;;;;;;;;;12.25;56.51;99932.91;4964815;28;6963;-71
2023/01/13 14:19:34;;;;;;;;;;;;;;;12.22;56.45;99943.09;4994530;28;7214;-70
2023/01/13 14:22:03;;;;;;;;;;;;;;;12.17;57.05;99948.06;4965622;28;7086;-71
2023/01/13 14:24:31;;;;;;;;;;;;;;;12.18;56.98;99948.97;4962923;28;6788;-71
2023/01/13 14:27:14;;;;;;;;;;;;;;;12.17;57.34;99950.63;4961593;28;6809;-71
2023/01/13 14:29:40;;;;;;;;;;;;;;;12.14;57.32;99954.78;4991190;28;6836;-71
2023/01/13 14:32:07;;;;;;;;;;;;;;;12.11;57.08;99955.56;4965822;28;7003;-71
2023/01/13 14:34:34;;;;;;;;;;;;;;;12.12;57.17;99967.59;4965482;28;6939;-71
2023/01/13 14:37:01;;;;;;;;;;;;;;;12.11;57.71;99968.41;4946671;28;8008;-71
2023/01/13 14:39:38;;;;;;;;;;;;;;;12.11;57.44;99959.84;4991078;28;6800;-71
2023/01/13 14:42:12;;;;;;;;;;;;;;;12.07;58.16;99972.59;4960360;28;7646;-71